Time;durP1;ratioP1;P1;durP2;ratioP2;P2;SDS_P1;SDS_P2;PMS_P1;PMS_P2;Temp;Humidity;BMP_temperature;BMP_pressure;BME280_temperature;BME280_humidity;BME280_pressure;Samples;Min_cycle;Max_cycle;Signal;HPM_P1;HPM_P2
2021/12/12 00:00:01;;;;;;;;;;;;;;;28.27;20.97;97986.72;171699;28;1139;-48
2021/12/12 00:00:15;;;;;;;;;;;;;;;28.24;20.65;97987.81;171962;28;1217;-48
2021/12/12 00:00:28;;;;;;;;;;;;;;;28.24;20.96;97985.16;171827;28;1083;-48
2021/12/12 00:00:43;;;;;;;;;;;;;;;28.23;20.79;97980.84;171823;28;1103;-48
2021/12/12 00:00:55;;;;;;;;;;;;;;;28.21;20.58;97988.09;171465;28;818;-48
2021/12/12 00:01:09;;;;;;;;;;;;;;;28.20;20.82;97986.41;171374;28;1608;-47
2021/12/12 00:01:19;;;;;;;;;;;;;;;28.19;20.64;97982.03;170965;28;814;-48
2021/12/12 00:01:24;;;;;;;;;;;;;;;28.16;20.62;97990.25;171314;28;865;-48
2021/12/12 00:01:31;;;;;;;;;;;;;;;28.18;20.71;97985.66;170964;28;1103;-47
2021/12/12 00:01:38;;;;;;;;;;;;;;;28.20;20.98;97989.06;171274;28;877;-48
2021/12/12 00:01:45;;;;;;;;;;;;;;;28.20;20.79;97985.53;171235;28;980;-47
2021/12/12 00:01:52;;;;;;;;;;;;;;;28.15;20.92;97985.09;171288;28;893;-48
2021/12/12 00:02:06;;;;;;;;;;;;;;;28.15;20.59;97985.09;170515;29;783;-48
2021/12/12 00:02:20;;;;;;;;;;;;;;;28.18;20.81;97984.81;170387;29;854;-48
2021/12/12 00:02:34;;;;;;;;;;;;;;;28.21;20.71;97987.25;170359;29;4383;-47
2021/12/12 00:02:55;;;;;;;;;;;;;;;28.17;20.69;97988.44;171275;28;888;-47
2021/12/12 00:03:14;;;;;;;;;;;;;;;28.21;20.68;97987.25;171270;28;885;-48
2021/12/12 00:03:31;;;;;;;;;;;;;;;28.15;20.81;97987.75;171329;28;964;-48
2021/12/12 00:03:45;;;;;;;;;;;;;;;28.17;20.54;97991.94;171110;28;1395;-47
2021/12/12 00:03:53;;;;;;;;;;;;;;;28.17;20.99;97988.44;170700;28;1098;-48
2021/12/12 00:04:09;;;;;;;;;;;;;;;28.17;21.06;97986.63;170550;29;826;-47
2021/12/12 00:04:16;;;;;;;;;;;;;;;28.13;20.63;97984.38;170804;28;909;-47
2021/12/12 00:04:31;;;;;;;;;;;;;;;28.19;21.05;97989.16;171415;28;881;-48
2021/12/12 00:04:38;;;;;;;;;;;;;;;28.21;20.67;97988.09;170607;28;874;-48
2021/12/12 00:04:46;;;;;;;;;;;;;;;28.19;20.87;97991.81;170674;28;817;-48
2021/12/12 00:04:51;;;;;;;;;;;;;;;28.23;20.80;97990.59;171109;28;1104;-48
2021/12/12 00:04:58;;;;;;;;;;;;;;;28.20;20.70;97989.06;171184;28;881;-47
2021/12/12 00:05:08;;;;;;;;;;;;;;;28.22;20.94;97988.94;171402;28;1155;-48
2021/12/12 00:05:13;;;;;;;;;;;;;;;28.23;20.76;97994.09;171116;28;1094;-48
2021/12/12 00:05:19;;;;;;;;;;;;;;;28.22;20.90;97988.94;171270;28;782;-47
2021/12/12 00:05:35;;;;;;;;;;;;;;;28.25;20.85;97988.66;171311;28;976;-48
2021/12/12 00:05:44;;;;;;;;;;;;;;;28.25;20.65;97992.16;171178;28;1252;-48
2021/12/12 00:05:51;;;;;;;;;;;;;;;28.24;20.78;97992.28;171331;28;1363;-48
2021/12/12 00:05:59;;;;;;;;;;;;;;;28.22;20.86;97991.56;171143;28;806;-48
2021/12/12 00:06:08;;;;;;;;;;;;;;;28.22;20.61;97988.94;170741;28;1001;-47
2021/12/12 00:06:40;;;;;;;;;;;;;;;28.22;20.79;97994.22;170789;28;4470;-47
2021/12/12 00:06:48;;;;;;;;;;;;;;;28.20;20.84;97996.16;169247;29;902;-48
2021/12/12 00:06:54;;;;;;;;;;;;;;;28.18;20.96;97992.78;170679;28;853;-48
2021/12/12 00:07:00;;;;;;;;;;;;;;;28.16;20.94;97992.91;171247;28;1095;-48
2021/12/12 00:07:07;;;;;;;;;;;;;;;28.18;21.03;97985.66;171391;28;1048;-48
2021/12/12 00:07:13;;;;;;;;;;;;;;;28.21;20.65;98003.16;171226;28;976;-47
2021/12/12 00:07:21;;;;;;;;;;;;;;;28.21;20.76;97995.19;171339;28;814;-47
2021/12/12 00:07:27;;;;;;;;;;;;;;;28.22;20.98;97994.22;171118;28;1248;-47
2021/12/12 00:07:32;;;;;;;;;;;;;;;28.19;20.74;97997.94;171265;28;988;-48
2021/12/12 00:07:37;;;;;;;;;;;;;;;28.19;20.64;97997.13;171252;28;1165;-48
2021/12/12 00:07:43;;;;;;;;;;;;;;;28.18;20.87;97996.28;171166;28;858;-47
2021/12/12 00:07:48;;;;;;;;;;;;;;;28.19;21.00;97991.81;171199;28;1051;-48
2021/12/12 00:07:53;;;;;;;;;;;;;;;28.19;20.91;97990.00;171318;28;894;-48
2021/12/12 00:07:58;;;;;;;;;;;;;;;28.17;20.70;97994.59;171176;28;1027;-48
2021/12/12 00:08:04;;;;;;;;;;;;;;;28.19;20.74;97999.78;171417;28;786;-47
2021/12/12 00:08:09;;;;;;;;;;;;;;;28.20;20.68;97996.16;171228;28;1054;-48
2021/12/12 00:08:15;;;;;;;;;;;;;;;28.20;20.86;97993.50;171216;28;1012;-47
2021/12/12 00:08:20;;;;;;;;;;;;;;;28.20;20.63;97994.38;171380;28;917;-49
2021/12/12 00:08:26;;;;;;;;;;;;;;;28.18;20.99;97985.66;170540;28;1058;-48
2021/12/12 00:08:32;;;;;;;;;;;;;;;28.21;20.61;97996.03;170388;28;893;-48
2021/12/12 00:08:37;;;;;;;;;;;;;;;28.23;20.58;97995.91;171135;28;1287;-48
2021/12/12 00:08:43;;;;;;;;;;;;;;;28.22;20.63;97995.06;171261;28;1038;-48
2021/12/12 00:08:50;;;;;;;;;;;;;;;28.23;20.65;97993.25;171222;28;1082;-47
2021/12/12 00:08:56;;;;;;;;;;;;;;;28.24;20.58;97992.28;171221;28;893;-48
2021/12/12 00:09:04;;;;;;;;;;;;;;;28.23;20.76;97993.25;170640;28;1019;-47
2021/12/12 00:09:13;;;;;;;;;;;;;;;28.18;20.77;97990.97;170802;28;1204;-47
2021/12/12 00:09:21;;;;;;;;;;;;;;;28.16;20.53;97990.25;171354;28;885;-48
2021/12/12 00:09:31;;;;;;;;;;;;;;;28.19;20.65;97992.66;171018;28;1048;-47
2021/12/12 00:09:40;;;;;;;;;;;;;;;28.23;20.96;97987.94;170624;29;1241;-48
2021/12/12 00:09:46;;;;;;;;;;;;;;;28.22;20.86;97988.94;171090;28;1119;-48
2021/12/12 00:09:52;;;;;;;;;;;;;;;28.19;20.79;97983.84;171339;28;1008;-48
2021/12/12 00:10:04;;;;;;;;;;;;;;;28.18;20.81;97988.31;171093;28;968;-47
2021/12/12 00:10:12;;;;;;;;;;;;;;;28.20;20.55;97997.00;171233;28;1134;-48
2021/12/12 00:10:19;;;;;;;;;;;;;;;28.21;20.67;97993.38;170501;28;4432;-47
2021/12/12 00:10:25;;;;;;;;;;;;;;;28.21;20.68;97988.09;171333;28;771;-47
2021/12/12 00:10:32;;;;;;;;;;;;;;;28.21;20.95;97989.91;171118;28;1131;-47
2021/12/12 00:10:38;;;;;;;;;;;;;;;28.21;20.59;97988.09;171276;28;945;-48
2021/12/12 00:10:43;;;;;;;;;;;;;;;28.21;20.95;97987.25;171225;28;1107;-47
2021/12/12 00:10:50;;;;;;;;;;;;;;;28.21;20.67;97988.09;171384;28;1008;-48
2021/12/12 00:10:59;;;;;;;;;;;;;;;28.19;20.89;97987.34;171186;28;1207;-48
2021/12/12 00:11:06;;;;;;;;;;;;;;;28.19;20.93;97990.00;171345;28;1060;-48
2021/12/12 00:11:12;;;;;;;;;;;;;;;28.18;20.98;97987.47;170531;29;901;-48
2021/12/12 00:11:18;;;;;;;;;;;;;;;28.19;20.90;97989.16;170749;28;1139;-48
2021/12/12 00:11:24;;;;;;;;;;;;;;;28.19;20.59;97994.47;171326;28;1004;-48
2021/12/12 00:11:30;;;;;;;;;;;;;;;28.21;20.57;97987.25;171106;28;1083;-47
2021/12/12 00:11:35;;;;;;;;;;;;;;;28.19;20.79;97990.00;171292;28;1012;-48
2021/12/12 00:11:41;;;;;;;;;;;;;;;28.19;20.65;97987.34;171144;28;1173;-48
2021/12/12 00:11:46;;;;;;;;;;;;;;;28.18;20.86;97988.31;171353;28;869;-47
2021/12/12 00:11:51;;;;;;;;;;;;;;;28.19;20.52;97989.16;171213;28;917;-47
2021/12/12 00:11:56;;;;;;;;;;;;;;;28.19;20.93;97989.16;171076;28;1035;-47
2021/12/12 00:12:03;;;;;;;;;;;;;;;28.20;20.88;97985.53;171361;28;843;-48
2021/12/12 00:12:14;;;;;;;;;;;;;;;28.21;20.88;97992.56;171206;28;1075;-48
2021/12/12 00:12:24;;;;;;;;;;;;;;;28.23;20.67;97988.78;171306;28;1150;-47
2021/12/12 00:12:31;;;;;;;;;;;;;;;28.21;20.55;97989.91;171140;28;1095;-48
2021/12/12 00:12:37;;;;;;;;;;;;;;;28.23;20.76;97990.59;171109;28;810;-48
2021/12/12 00:12:43;;;;;;;;;;;;;;;28.24;20.78;97989.63;171060;28;991;-48
2021/12/12 00:12:49;;;;;;;;;;;;;;;28.23;20.94;97990.59;171979;28;996;-49
2021/12/12 00:12:56;;;;;;;;;;;;;;;28.22;20.71;97987.13;171804;28;1315;-48
2021/12/12 00:13:04;;;;;;;;;;;;;;;28.25;20.87;97983.34;171962;28;865;-47
2021/12/12 00:13:10;;;;;;;;;;;;;;;28.25;20.62;97993.97;171902;28;829;-48
2021/12/12 00:13:21;;;;;;;;;;;;;;;28.21;20.84;97987.25;171857;28;1130;-48
2021/12/12 00:13:32;;;;;;;;;;;;;;;28.24;20.83;97986.97;171740;28;1087;-49
2021/12/12 00:13:38;;;;;;;;;;;;;;;28.25;20.56;97989.50;171104;28;1237;-47
2021/12/12 00:13:45;;;;;;;;;;;;;;;28.28;20.52;97991.03;171895;28;789;-48
2021/12/12 00:13:52;;;;;;;;;;;;;;;28.27;20.51;97990.22;171929;28;1170;-48
2021/12/12 00:13:59;;;;;;;;;;;;;;;28.20;20.52;97980.22;171827;28;821;-48
2021/12/12 00:14:14;;;;;;;;;;;;;;;28.25;20.92;97993.97;171948;28;1221;-48
2021/12/12 00:14:21;;;;;;;;;;;;;;;28.27;20.60;97992.00;171515;28;4354;-48
2021/12/12 00:14:29;;;;;;;;;;;;;;;28.26;20.52;97991.19;171768;28;1122;-48
2021/12/12 00:14:34;;;;;;;;;;;;;;;28.28;20.90;97991.03;171778;28;814;-47
2021/12/12 00:14:39;;;;;;;;;;;;;;;28.28;20.78;97996.34;171650;28;1023;-47
2021/12/12 00:14:45;;;;;;;;;;;;;;;28.28;20.93;97989.25;171884;28;814;-48
2021/12/12 00:14:51;;;;;;;;;;;;;;;28.28;20.62;97994.56;171294;28;1222;-49
2021/12/12 00:14:56;;;;;;;;;;;;;;;28.30;20.77;97986.50;171173;28;806;-47
2021/12/12 00:15:02;;;;;;;;;;;;;;;28.31;20.89;97994.34;171257;28;1229;-48
2021/12/12 00:15:08;;;;;;;;;;;;;;;28.33;20.52;97991.53;171183;28;1016;-48
2021/12/12 00:15:13;;;;;;;;;;;;;;;28.32;20.74;97990.72;171296;28;1095;-47
2021/12/12 00:15:19;;;;;;;;;;;;;;;28.31;20.56;97983.72;171928;28;849;-47
2021/12/12 00:15:24;;;;;;;;;;;;;;;28.31;20.75;97998.78;171737;28;867;-48
2021/12/12 00:15:29;;;;;;;;;;;;;;;28.30;20.56;97992.66;171797;28;961;-49
2021/12/12 00:15:35;;;;;;;;;;;;;;;28.31;20.58;97989.03;171985;28;928;-47
2021/12/12 00:15:40;;;;;;;;;;;;;;;28.29;20.86;97993.63;171785;28;1193;-47
2021/12/12 00:15:45;;;;;;;;;;;;;;;28.28;20.58;97994.56;171968;28;897;-48
2021/12/12 00:15:50;;;;;;;;;;;;;;;28.28;20.69;97993.69;171874;28;1167;-48
2021/12/12 00:15:55;;;;;;;;;;;;;;;28.28;20.76;97996.34;171371;28;1914;-48
2021/12/12 00:16:01;;;;;;;;;;;;;;;28.29;20.78;97998.06;171605;28;972;-47
2021/12/12 00:16:07;;;;;;;;;;;;;;;28.31;20.83;97990.84;171847;28;868;-47
2021/12/12 00:16:13;;;;;;;;;;;;;;;28.29;20.49;97996.28;171841;28;1099;-48
2021/12/12 00:16:18;;;;;;;;;;;;;;;28.29;20.43;97984.81;171951;28;870;-48
2021/12/12 00:16:23;;;;;;;;;;;;;;;28.28;20.45;97991.91;171849;28;1024;-48
2021/12/12 00:16:28;;;;;;;;;;;;;;;28.29;20.75;97995.41;171752;28;1130;-47
2021/12/12 00:16:33;;;;;;;;;;;;;;;28.28;20.41;97993.69;171854;28;1063;-47
2021/12/12 00:16:39;;;;;;;;;;;;;;;28.28;20.82;97994.56;171716;28;1118;-47
2021/12/12 00:16:44;;;;;;;;;;;;;;;28.27;20.54;97992.00;171855;28;802;-48
2021/12/12 00:16:49;;;;;;;;;;;;;;;28.27;20.83;97992.84;171873;28;976;-48
2021/12/12 00:16:55;;;;;;;;;;;;;;;28.27;20.47;97992.00;171776;28;881;-47
2021/12/12 00:17:00;;;;;;;;;;;;;;;28.29;20.76;97995.41;171886;28;1080;-48
2021/12/12 00:17:06;;;;;;;;;;;;;;;28.30;20.58;97994.47;171953;28;872;-48
2021/12/12 00:17:11;;;;;;;;;;;;;;;28.29;20.78;98000.72;171835;28;1063;-47
2021/12/12 00:17:16;;;;;;;;;;;;;;;28.28;20.68;97999.00;171756;28;762;-48
2021/12/12 00:17:22;;;;;;;;;;;;;;;28.28;20.71;97997.22;171245;28;904;-47
2021/12/12 00:17:27;;;;;;;;;;;;;;;28.27;20.40;97992.84;170505;28;1000;-49
2021/12/12 00:17:32;;;;;;;;;;;;;;;28.27;20.71;97992.00;170472;29;944;-47
2021/12/12 00:17:38;;;;;;;;;;;;;;;28.29;20.76;97998.06;171024;28;1019;-47
2021/12/12 00:17:43;;;;;;;;;;;;;;;28.27;20.77;97997.31;171259;28;916;-49
2021/12/12 00:17:48;;;;;;;;;;;;;;;28.28;20.81;97996.34;171228;28;1914;-48
2021/12/12 00:17:54;;;;;;;;;;;;;;;28.28;20.65;97991.03;171253;28;898;-47
2021/12/12 00:17:59;;;;;;;;;;;;;;;28.28;20.60;97996.34;171220;28;1114;-48
2021/12/12 00:18:04;;;;;;;;;;;;;;;28.27;20.77;97992.84;171330;28;897;-48
2021/12/12 00:18:09;;;;;;;;;;;;;;;28.25;20.77;97997.44;170743;28;4296;-48
2021/12/12 00:18:14;;;;;;;;;;;;;;;28.26;20.64;97993.00;171317;28;818;-48
2021/12/12 00:18:20;;;;;;;;;;;;;;;28.27;20.83;97997.31;171331;28;798;-48
2021/12/12 00:18:25;;;;;;;;;;;;;;;28.26;20.67;97987.69;171043;28;1055;-51
2021/12/12 00:18:30;;;;;;;;;;;;;;;28.25;20.53;97993.97;171299;28;901;-47
2021/12/12 00:18:35;;;;;;;;;;;;;;;28.26;20.79;97996.47;171043;28;1173;-47
2021/12/12 00:18:41;;;;;;;;;;;;;;;28.22;20.59;97992.41;171241;28;896;-47
2021/12/12 00:18:46;;;;;;;;;;;;;;;28.20;20.74;97996.16;171790;28;1075;-48
2021/12/12 00:18:51;;;;;;;;;;;;;;;28.18;20.71;97998.09;171994;28;1016;-48
2021/12/12 00:18:56;;;;;;;;;;;;;;;28.18;20.74;97992.78;171786;28;1071;-48
2021/12/12 00:19:02;;;;;;;;;;;;;;;28.18;20.73;97993.63;171986;28;1214;-48
2021/12/12 00:19:07;;;;;;;;;;;;;;;28.20;20.93;97997.00;171894;28;1015;-48
2021/12/12 00:19:12;;;;;;;;;;;;;;;28.20;20.82;97996.16;171699;28;1249;-47
2021/12/12 00:19:17;;;;;;;;;;;;;;;28.20;20.95;97999.66;172020;28;826;-48
2021/12/12 00:19:23;;;;;;;;;;;;;;;28.22;20.80;97991.56;171864;28;1221;-47
2021/12/12 00:19:28;;;;;;;;;;;;;;;28.22;20.57;97994.22;171858;28;853;-47
2021/12/12 00:19:35;;;;;;;;;;;;;;;28.22;20.51;97997.72;171704;28;1142;-48
2021/12/12 00:19:40;;;;;;;;;;;;;;;28.23;20.47;97996.75;171902;28;920;-49
2021/12/12 00:19:46;;;;;;;;;;;;;;;28.23;20.85;97990.59;171952;28;1225;-47
2021/12/12 00:19:51;;;;;;;;;;;;;;;28.23;20.50;97991.44;171923;28;805;-48
2021/12/12 00:19:56;;;;;;;;;;;;;;;28.22;20.64;97994.22;171778;28;1114;-47
2021/12/12 00:20:01;;;;;;;;;;;;;;;28.24;20.53;97997.59;171803;28;1012;-47
2021/12/12 00:20:07;;;;;;;;;;;;;;;28.26;20.47;98001.78;171915;28;1114;-47
2021/12/12 00:20:13;;;;;;;;;;;;;;;28.25;20.72;97994.81;171854;28;888;-47
2021/12/12 00:20:19;;;;;;;;;;;;;;;28.23;20.78;97993.25;171928;28;1213;-48
2021/12/12 00:20:25;;;;;;;;;;;;;;;28.27;20.57;97992.00;171807;28;558;-48
2021/12/12 00:20:30;;;;;;;;;;;;;;;28.27;20.82;97997.31;171891;28;778;-47
2021/12/12 00:20:35;;;;;;;;;;;;;;;28.24;20.66;97998.44;171772;28;900;-48
2021/12/12 00:20:40;;;;;;;;;;;;;;;28.23;20.66;98002.06;171823;28;646;-47
2021/12/12 00:20:45;;;;;;;;;;;;;;;28.23;20.91;97995.91;171842;28;1188;-48
2021/12/12 00:20:51;;;;;;;;;;;;;;;28.22;20.51;98004.84;171752;28;825;-48
2021/12/12 00:20:56;;;;;;;;;;;;;;;28.22;20.51;97999.53;171852;28;1220;-48
2021/12/12 00:21:02;;;;;;;;;;;;;;;28.22;20.63;97995.06;171914;28;1003;-48
2021/12/12 00:21:07;;;;;;;;;;;;;;;28.20;20.86;97997.00;171825;28;1126;-48
2021/12/12 00:21:13;;;;;;;;;;;;;;;28.21;20.80;97997.84;171747;28;880;-48
2021/12/12 00:21:18;;;;;;;;;;;;;;;28.22;20.57;98003.03;171096;28;1139;-49
2021/12/12 00:21:24;;;;;;;;;;;;;;;28.24;20.62;98001.06;171077;28;1058;-47
2021/12/12 00:21:29;;;;;;;;;;;;;;;28.23;20.84;97998.56;171011;28;1028;-48
2021/12/12 00:21:35;;;;;;;;;;;;;;;28.24;20.66;97998.44;171075;28;904;-48
2021/12/12 00:21:41;;;;;;;;;;;;;;;28.23;20.80;98002.06;171000;28;817;-47
2021/12/12 00:21:47;;;;;;;;;;;;;;;28.24;20.84;97994.94;171217;28;1015;-47
2021/12/12 00:21:54;;;;;;;;;;;;;;;28.24;20.97;98002.91;171107;28;1042;-48
2021/12/12 00:21:59;;;;;;;;;;;;;;;28.26;20.81;98003.59;171237;28;940;-47
2021/12/12 00:22:07;;;;;;;;;;;;;;;28.27;20.79;97999.97;171240;28;1078;-47
2021/12/12 00:22:13;;;;;;;;;;;;;;;28.26;20.45;98000.94;170865;28;4296;-47
2021/12/12 00:22:19;;;;;;;;;;;;;;;28.26;20.83;98004.44;171212;28;1111;-47
2021/12/12 00:22:25;;;;;;;;;;;;;;;28.25;20.51;97997.44;171186;28;865;-47
2021/12/12 00:22:32;;;;;;;;;;;;;;;28.26;20.51;98000.94;170972;28;845;-47
2021/12/12 00:22:37;;;;;;;;;;;;;;;28.24;20.79;98001.06;171139;28;898;-48
2021/12/12 00:22:42;;;;;;;;;;;;;;;28.27;20.85;98000.81;171214;28;1087;-48
2021/12/12 00:22:47;;;;;;;;;;;;;;;28.27;20.75;98013.22;171281;28;948;-49
2021/12/12 00:22:57;;;;;;;;;;;;;;;28.25;20.81;98004.56;171113;28;1043;-49
2021/12/12 00:23:03;;;;;;;;;;;;;;;28.25;20.63;98007.22;171310;28;877;-47
2021/12/12 00:23:08;;;;;;;;;;;;;;;28.26;20.47;98007.09;171163;28;778;-48
2021/12/12 00:23:13;;;;;;;;;;;;;;;28.26;20.88;98003.59;171285;28;798;-47
2021/12/12 00:23:19;;;;;;;;;;;;;;;28.24;20.79;98005.53;171149;28;1194;-48
2021/12/12 00:23:24;;;;;;;;;;;;;;;28.22;20.88;97997.72;171232;28;892;-47
2021/12/12 00:23:29;;;;;;;;;;;;;;;28.21;20.88;98009.31;171054;28;1114;-47
2021/12/12 00:23:34;;;;;;;;;;;;;;;28.19;20.57;98005.91;171188;28;813;-48
2021/12/12 00:23:39;;;;;;;;;;;;;;;28.19;20.52;98005.91;171049;28;1407;-47
2021/12/12 00:23:45;;;;;;;;;;;;;;;28.21;20.65;98005.81;171390;28;710;-48
2021/12/12 00:23:50;;;;;;;;;;;;;;;28.21;20.91;98003.16;171928;28;1048;-48
2021/12/12 00:23:55;;;;;;;;;;;;;;;28.22;20.89;98004.84;171811;28;995;-48
2021/12/12 00:24:00;;;;;;;;;;;;;;;28.21;20.76;98004.00;171994;28;805;-47
2021/12/12 00:24:06;;;;;;;;;;;;;;;28.22;20.50;98004.84;171888;28;1237;-47
2021/12/12 00:24:11;;;;;;;;;;;;;;;28.21;20.90;98006.66;171812;28;876;-48
2021/12/12 00:24:16;;;;;;;;;;;;;;;28.23;20.51;98007.34;171871;28;1206;-47
2021/12/12 00:24:22;;;;;;;;;;;;;;;28.24;20.83;98003.72;171815;28;916;-48
2021/12/12 00:24:27;;;;;;;;;;;;;;;28.25;20.90;98012.53;171797;28;1185;-48
2021/12/12 00:24:32;;;;;;;;;;;;;;;28.26;20.87;98008.91;171900;28;620;-48
2021/12/12 00:24:38;;;;;;;;;;;;;;;28.26;20.84;98009.75;171780;28;1114;-48
2021/12/12 00:24:43;;;;;;;;;;;;;;;28.26;20.78;98008.91;171956;28;943;-49
2021/12/12 00:24:49;;;;;;;;;;;;;;;28.18;20.91;98008.69;171775;28;880;-48
2021/12/12 00:24:54;;;;;;;;;;;;;;;28.21;20.49;98009.31;171792;28;960;-48
2021/12/12 00:24:59;;;;;;;;;;;;;;;28.21;20.53;98016.41;171812;28;898;-48
2021/12/12 00:25:05;;;;;;;;;;;;;;;28.20;20.59;98009.41;171883;28;1146;-48
2021/12/12 00:25:11;;;;;;;;;;;;;;;28.21;20.90;98005.81;171806;28;935;-48
2021/12/12 00:25:16;;;;;;;;;;;;;;;28.23;20.59;98014.47;171355;28;1019;-47
2021/12/12 00:25:22;;;;;;;;;;;;;;;28.24;20.89;98006.38;171629;28;952;-48
2021/12/12 00:25:30;;;;;;;;;;;;;;;28.22;20.65;98010.97;171810;28;1095;-47
2021/12/12 00:25:40;;;;;;;;;;;;;;;28.24;20.92;98013.50;171745;28;968;-49
2021/12/12 00:25:47;;;;;;;;;;;;;;;28.25;20.88;98016.03;172524;28;821;-48
2021/12/12 00:25:52;;;;;;;;;;;;;;;28.24;20.57;98011.69;172349;28;1115;-48
2021/12/12 00:25:58;;;;;;;;;;;;;;;28.24;20.58;98013.50;172522;28;904;-48
2021/12/12 00:26:03;;;;;;;;;;;;;;;28.24;20.77;98016.16;172600;28;1158;-48
2021/12/12 00:26:09;;;;;;;;;;;;;;;28.22;20.64;98013.63;172078;28;4372;-48
2021/12/12 00:26:14;;;;;;;;;;;;;;;28.21;20.59;98016.41;172581;28;1106;-48
2021/12/12 00:26:19;;;;;;;;;;;;;;;28.21;20.66;98014.59;172480;28;976;-47
2021/12/12 00:26:24;;;;;;;;;;;;;;;28.22;20.52;98023.41;172470;28;1086;-47
2021/12/12 00:26:30;;;;;;;;;;;;;;;28.22;20.61;98018.09;172435;28;818;-48
2021/12/12 00:26:35;;;;;;;;;;;;;;;28.22;20.78;98018.09;172289;28;1018;-48
2021/12/12 00:26:40;;;;;;;;;;;;;;;28.20;20.85;98012.06;172584;28;839;-47
2021/12/12 00:26:46;;;;;;;;;;;;;;;28.15;20.66;98011.63;172638;28;797;-47
2021/12/12 00:26:52;;;;;;;;;;;;;;;28.18;20.68;98014.84;172487;28;1257;-48
2021/12/12 00:26:57;;;;;;;;;;;;;;;28.18;20.81;98014.00;172585;28;1094;-48
2021/12/12 00:27:02;;;;;;;;;;;;;;;28.21;20.77;98013.75;172512;28;1158;-48
2021/12/12 00:27:07;;;;;;;;;;;;;;;28.25;20.84;98016.03;172507;28;948;-47
2021/12/12 00:27:13;;;;;;;;;;;;;;;28.24;20.42;98014.34;172535;28;1103;-48
2021/12/12 00:27:19;;;;;;;;;;;;;;;28.23;20.54;98011.81;172609;28;925;-48
2021/12/12 00:27:24;;;;;;;;;;;;;;;28.23;20.44;98017.97;172328;28;1028;-47
2021/12/12 00:27:29;;;;;;;;;;;;;;;28.21;20.55;98013.75;172451;28;952;-47
2021/12/12 00:27:34;;;;;;;;;;;;;;;28.24;20.84;98016.16;172456;28;1039;-47
2021/12/12 00:27:40;;;;;;;;;;;;;;;28.24;20.46;98017.00;172568;28;931;-49
2021/12/12 00:27:45;;;;;;;;;;;;;;;28.22;20.80;98018.09;172351;28;841;-48
2021/12/12 00:27:50;;;;;;;;;;;;;;;28.22;20.79;98018.09;171819;28;1227;-48
2021/12/12 00:27:55;;;;;;;;;;;;;;;28.23;20.67;98017.13;171953;28;853;-47
2021/12/12 00:28:00;;;;;;;;;;;;;;;28.20;20.86;98018.22;171875;28;1106;-48
2021/12/12 00:28:06;;;;;;;;;;;;;;;28.19;20.79;98024.47;171891;28;667;-47
2021/12/12 00:28:11;;;;;;;;;;;;;;;28.20;20.64;98018.22;171861;28;1111;-47
2021/12/12 00:28:19;;;;;;;;;;;;;;;28.23;20.78;98019.78;171793;28;861;-48
2021/12/12 00:28:27;;;;;;;;;;;;;;;28.25;20.70;98026.63;171772;28;1066;-47
2021/12/12 00:28:32;;;;;;;;;;;;;;;28.24;20.77;98019.66;171191;28;900;-48
2021/12/12 00:28:39;;;;;;;;;;;;;;;28.24;20.62;98017.00;171102;28;1081;-48
2021/12/12 00:28:45;;;;;;;;;;;;;;;28.23;20.58;98017.13;171315;28;1200;-48
2021/12/12 00:28:50;;;;;;;;;;;;;;;28.22;20.85;98021.59;171317;28;818;-47
2021/12/12 00:28:55;;;;;;;;;;;;;;;28.23;20.77;98017.97;171202;28;909;-47
2021/12/12 00:29:00;;;;;;;;;;;;;;;28.24;20.63;98017.00;171200;28;1225;-48
2021/12/12 00:29:06;;;;;;;;;;;;;;;28.26;20.76;98022.16;171147;28;841;-48
2021/12/12 00:29:11;;;;;;;;;;;;;;;28.25;20.56;98021.31;171347;28;1107;-48
2021/12/12 00:29:17;;;;;;;;;;;;;;;28.23;20.88;98017.13;171316;28;961;-48
2021/12/12 00:29:22;;;;;;;;;;;;;;;28.22;20.69;98012.78;171158;28;1046;-48
2021/12/12 00:29:27;;;;;;;;;;;;;;;28.22;20.84;98018.09;171293;28;901;-48
2021/12/12 00:29:32;;;;;;;;;;;;;;;28.23;20.63;98020.63;171168;28;1106;-48
2021/12/12 00:29:38;;;;;;;;;;;;;;;28.24;20.79;98018.81;171130;28;715;-48
2021/12/12 00:29:43;;;;;;;;;;;;;;;28.25;20.56;98020.50;171961;28;810;-48
2021/12/12 00:29:48;;;;;;;;;;;;;;;28.24;20.58;98021.47;171897;28;1320;-48
2021/12/12 00:30:01;;;;;;;;;;;;;;;28.25;20.62;98015.19;171665;28;1086;-48
2021/12/12 00:30:07;;;;;;;;;;;;;;;28.24;20.63;98021.47;171443;28;893;-48
2021/12/12 00:30:12;;;;;;;;;;;;;;;28.22;20.66;98013.63;171555;28;4153;-48
2021/12/12 00:30:17;;;;;;;;;;;;;;;28.23;20.92;98017.97;171926;28;844;-48
2021/12/12 00:30:22;;;;;;;;;;;;;;;28.23;20.67;98019.78;171824;28;1182;-47
2021/12/12 00:30:28;;;;;;;;;;;;;;;28.23;20.80;98019.78;171801;28;1087;-48
2021/12/12 00:30:33;;;;;;;;;;;;;;;28.23;20.76;98015.31;171751;28;1134;-48
2021/12/12 00:30:38;;;;;;;;;;;;;;;28.22;20.86;98018.94;171842;28;793;-48
2021/12/12 00:30:43;;;;;;;;;;;;;;;28.20;20.67;98020.00;171805;28;972;-47
2021/12/12 00:30:50;;;;;;;;;;;;;;;28.19;20.90;98013.88;171909;28;866;-48
2021/12/12 00:30:56;;;;;;;;;;;;;;;28.18;20.54;98017.50;171556;28;1488;-47
2021/12/12 00:31:08;;;;;;;;;;;;;;;28.22;20.82;98023.41;171646;28;952;-47
2021/12/12 00:31:14;;;;;;;;;;;;;;;28.22;20.80;98013.63;171927;28;841;-48
2021/12/12 00:31:20;;;;;;;;;;;;;;;28.24;20.61;98018.81;172139;28;1218;-48
2021/12/12 00:31:25;;;;;;;;;;;;;;;28.26;20.76;98019.50;172554;28;1008;-48
2021/12/12 00:31:30;;;;;;;;;;;;;;;28.23;20.80;98019.78;172284;28;1489;-48
2021/12/12 00:31:35;;;;;;;;;;;;;;;28.21;20.59;98022.56;172422;28;877;-48
2021/12/12 00:31:41;;;;;;;;;;;;;;;28.23;20.61;98017.13;172339;28;947;-47
2021/12/12 00:31:46;;;;;;;;;;;;;;;28.23;20.78;98019.78;172552;28;1324;-48
2021/12/12 00:31:53;;;;;;;;;;;;;;;28.17;20.58;98017.63;172548;28;855;-47
2021/12/12 00:32:00;;;;;;;;;;;;;;;28.20;20.74;98020.88;172006;28;806;-48
2021/12/12 00:32:07;;;;;;;;;;;;;;;28.22;20.63;98018.09;171894;28;1185;-48
2021/12/12 00:32:13;;;;;;;;;;;;;;;28.21;20.84;98013.75;172700;28;821;-49
2021/12/12 00:32:19;;;;;;;;;;;;;;;28.19;20.59;98020.97;172373;28;1277;-48
2021/12/12 00:32:26;;;;;;;;;;;;;;;28.16;20.62;98015.94;171720;28;813;-48
2021/12/12 00:32:32;;;;;;;;;;;;;;;28.18;20.90;98019.31;172127;28;1234;-48
2021/12/12 00:32:39;;;;;;;;;;;;;;;28.18;20.54;98014.00;172412;28;873;-48
2021/12/12 00:32:44;;;;;;;;;;;;;;;28.18;20.91;98019.31;172516;28;1071;-48
2021/12/12 00:32:51;;;;;;;;;;;;;;;28.17;20.92;98017.63;172575;28;860;-48
2021/12/12 00:32:56;;;;;;;;;;;;;;;28.22;20.61;98026.06;172457;28;1158;-47
2021/12/12 00:33:02;;;;;;;;;;;;;;;28.22;20.76;98026.06;172622;28;568;-48
2021/12/12 00:33:08;;;;;;;;;;;;;;;28.23;20.59;98019.78;172022;28;1042;-47
2021/12/12 00:33:13;;;;;;;;;;;;;;;28.23;20.85;98023.28;171277;28;826;-48
2021/12/12 00:33:19;;;;;;;;;;;;;;;28.25;20.56;98023.13;171563;28;1163;-48
2021/12/12 00:33:24;;;;;;;;;;;;;;;28.24;20.72;98024.13;171807;28;892;-48
2021/12/12 00:33:29;;;;;;;;;;;;;;;28.24;20.91;98014.34;171750;28;1142;-48
2021/12/12 00:33:38;;;;;;;;;;;;;;;28.24;20.58;98024.13;171752;28;936;-49
2021/12/12 00:33:44;;;;;;;;;;;;;;;28.24;20.64;98014.34;171201;28;1194;-47
2021/12/12 00:33:50;;;;;;;;;;;;;;;28.26;20.78;98012.41;171289;28;818;-48
2021/12/12 00:33:55;;;;;;;;;;;;;;;28.27;20.57;98018.53;171211;28;1242;-47
2021/12/12 00:34:01;;;;;;;;;;;;;;;28.25;20.85;98015.19;171141;28;814;-49
2021/12/12 00:34:07;;;;;;;;;;;;;;;28.26;20.65;98019.50;171113;28;1174;-48
2021/12/12 00:34:12;;;;;;;;;;;;;;;28.27;20.75;98013.22;170685;28;4351;-49
2021/12/12 00:34:17;;;;;;;;;;;;;;;28.25;20.48;98020.50;171079;28;1000;-48
2021/12/12 00:34:23;;;;;;;;;;;;;;;28.26;20.74;98017.69;171052;28;809;-47
2021/12/12 00:34:29;;;;;;;;;;;;;;;28.26;20.81;98020.34;171200;28;1159;-48
2021/12/12 00:34:35;;;;;;;;;;;;;;;28.26;20.42;98016.84;170358;29;826;-47
2021/12/12 00:34:41;;;;;;;;;;;;;;;28.26;20.53;98014.22;170544;29;1175;-47
2021/12/12 00:34:53;;;;;;;;;;;;;;;28.23;20.76;98012.66;170388;29;854;-48
2021/12/12 00:35:00;;;;;;;;;;;;;;;28.25;20.72;98015.19;170551;29;865;-49
2021/12/12 00:35:10;;;;;;;;;;;;;;;28.24;20.56;98014.34;170461;28;1123;-47
2021/12/12 00:35:16;;;;;;;;;;;;;;;28.24;20.56;98017.00;170578;29;1096;-47
2021/12/12 00:35:21;;;;;;;;;;;;;;;28.22;20.46;98013.63;170318;29;845;-48